Time;durP1;ratioP1;P1;durP2;ratioP2;P2;SDS_P1;SDS_P2;PMS_P1;PMS_P2;Temp;Humidity;BMP_temperature;BMP_pressure;BME280_temperature;BME280_humidity;BME280_pressure;Samples;Min_cycle;Max_cycle;Signal;HPM_P1;HPM_P2
2023/08/04 00:04:17;;;;;;;0.20;0.20;;;;;;;16.56;100.00;97578.59;15287028;19;20375;-46
2023/08/04 00:09:42;;;;;;;0.30;0.20;;;;;;;16.57;100.00;97593.06;15298053;19;20014;-46
2023/08/04 00:15:09;;;;;;;0.60;0.30;;;;;;;16.60;100.00;97614.34;15287785;19;20066;-46
2023/08/04 00:20:36;;;;;;;1.95;0.30;;;;;;;16.63;100.00;97633.81;15290499;19;20029;-46
2023/08/04 00:26:01;;;;;;;0.98;0.28;;;;;;;16.59;100.00;97635.28;15285237;19;20017;-46
2023/08/04 00:31:25;;;;;;;0.50;0.30;;;;;;;16.55;100.00;97636.75;15286367;19;20019;-46
2023/08/04 00:36:52;;;;;;;0.47;0.28;;;;;;;16.52;100.00;97648.09;15280924;19;20010;-47
2023/08/04 00:42:17;;;;;;;0.82;0.32;;;;;;;16.48;100.00;97665.88;15286604;19;20019;-46
2023/08/04 00:47:49;;;;;;;0.25;0.15;;;;;;;16.47;100.00;97675.09;15288053;19;20027;-46
2023/08/04 00:53:17;;;;;;;0.35;0.20;;;;;;;16.45;100.00;97660.88;15282286;19;20031;-46
2023/08/04 00:58:42;;;;;;;1.45;0.25;;;;;;;16.43;100.00;97665.69;15291990;19;20010;-46
2023/08/04 01:04:07;;;;;;;0.50;0.30;;;;;;;16.37;100.00;97663.84;15283636;19;20031;-46
2023/08/04 01:09:41;;;;;;;0.20;0.20;;;;;;;16.35;100.00;97655.09;15287931;19;20078;-46
2023/08/04 01:15:09;;;;;;;0.55;0.30;;;;;;;16.33;100.00;97661.56;15283902;19;20018;-46
2023/08/04 01:20:35;;;;;;;0.20;0.20;;;;;;;16.35;100.00;97674.94;15285530;19;20014;-47
2023/08/04 01:26:06;;;;;;;0.30;0.20;;;;;;;16.36;100.00;97682.03;15283428;19;20018;-47
2023/08/04 01:31:30;;;;;;;0.55;0.20;;;;;;;16.36;100.00;97683.94;15282783;19;20028;-47
2023/08/04 01:36:55;;;;;;;0.68;0.10;;;;;;;16.33;100.00;97682.50;15282172;19;20408;-49
2023/08/04 01:42:22;;;;;;;0.80;0.30;;;;;;;16.29;100.00;97676.63;15281498;19;20016;-48
2023/08/04 01:47:47;;;;;;;0.30;0.10;;;;;;;16.27;100.00;97670.59;15284737;19;20082;-49
2023/08/04 01:53:12;;;;;;;0.50;0.30;;;;;;;16.22;100.00;97686.72;15284798;19;20018;-48
2023/08/04 01:58:40;;;;;;;0.40;0.20;;;;;;;16.20;100.00;97675.22;15288728;19;20074;-46
2023/08/04 02:04:05;;;;;;;0.60;0.30;;;;;;;16.16;100.00;97680.25;15279176;19;20028;-49
2023/08/04 02:09:30;;;;;;;1.20;0.30;;;;;;;16.11;100.00;97680.06;15297955;19;20014;-46
2023/08/04 02:14:57;;;;;;;0.55;0.20;;;;;;;16.10;100.00;97685.72;15294852;19;20023;-47
2023/08/04 02:20:22;;;;;;;0.40;0.20;;;;;;;16.10;100.00;97692.00;15306484;19;20074;-49
2023/08/04 02:25:46;;;;;;;0.75;0.30;;;;;;;16.11;100.00;97700.97;15302782;19;20018;-47
2023/08/04 02:31:13;;;;;;;0.30;0.30;;;;;;;16.13;100.00;97707.84;15293129;19;20015;-46
2023/08/04 02:36:39;;;;;;;1.15;0.40;;;;;;;16.10;100.00;97713.75;15293715;19;20484;-46
2023/08/04 02:42:04;;;;;;;0.93;0.38;;;;;;;16.11;100.00;97714.56;15294689;19;20043;-46
2023/08/04 02:47:39;;;;;;;0.55;0.30;;;;;;;16.13;100.00;97707.84;15289472;19;20426;-48
2023/08/04 02:53:04;;;;;;;0.70;0.30;;;;;;;16.14;100.00;97714.13;15295205;19;20051;-46
2023/08/04 02:58:28;;;;;;;0.55;0.32;;;;;;;16.12;100.00;97721.66;15297239;19;20687;-46
2023/08/04 03:03:56;;;;;;;0.68;0.30;;;;;;;16.12;100.00;97718.94;15302451;19;20014;-46
2023/08/04 03:09:20;;;;;;;0.85;0.30;;;;;;;16.09;100.00;97727.53;15300777;19;20018;-46
2023/08/04 03:14:45;;;;;;;0.30;0.20;;;;;;;16.07;100.00;97737.75;15289450;19;20348;-46
2023/08/04 03:20:13;;;;;;;0.45;0.40;;;;;;;16.05;100.00;97750.75;15294512;19;20489;-47
2023/08/04 03:25:38;;;;;;;0.85;0.40;;;;;;;15.96;100.00;97750.97;15298105;19;20028;-47
2023/08/04 03:31:03;;;;;;;0.73;0.40;;;;;;;15.81;100.00;97769.38;15292568;19;20036;-48
2023/08/04 03:36:31;;;;;;;1.75;0.52;;;;;;;15.63;100.00;97800.69;15289117;19;20047;-46
2023/08/04 03:41:55;;;;;;;1.83;0.80;;;;;;;15.38;100.00;97846.63;15291149;19;20036;-46
2023/08/04 03:47:29;;;;;;;1.33;0.60;;;;;;;15.16;100.00;97909.22;15290162;19;20363;-46
2023/08/04 03:52:57;;;;;;;1.90;0.70;;;;;;;14.90;100.00;97970.44;15291104;19;20007;-46
2023/08/04 03:58:21;;;;;;;1.73;0.77;;;;;;;14.74;100.00;98004.13;15295019;19;20443;-46
2023/08/04 04:03:46;;;;;;;1.83;0.80;;;;;;;14.64;100.00;98042.41;15297814;19;20036;-46
2023/08/04 04:09:14;;;;;;;0.80;0.70;;;;;;;14.51;100.00;98065.88;15296405;19;20638;-47
2023/08/04 04:14:39;;;;;;;1.35;0.70;;;;;;;14.41;100.00;98091.41;15287589;19;20019;-46
2023/08/04 04:20:03;;;;;;;1.30;0.80;;;;;;;14.33;100.00;98118.66;15297768;19;20031;-45
2023/08/04 04:25:31;;;;;;;1.15;0.70;;;;;;;14.29;100.00;98137.16;15286872;19;20018;-47
2023/08/04 04:30:57;;;;;;;1.10;0.80;;;;;;;14.25;100.00;98159.41;15286587;19;20375;-46
2023/08/04 04:36:25;;;;;;;0.95;0.77;;;;;;;14.27;100.00;98173.63;15292585;19;20024;-46
2023/08/04 04:41:52;;;;;;;1.45;0.88;;;;;;;14.25;100.00;98172.97;15294461;19;20026;-46
2023/08/04 04:47:23;;;;;;;0.93;0.70;;;;;;;14.26;100.00;98174.66;15282935;19;20074;-47
2023/08/04 04:52:48;;;;;;;1.25;0.90;;;;;;;14.29;100.00;98185.09;15284794;19;20018;-46
2023/08/04 04:58:15;;;;;;;1.35;0.80;;;;;;;14.35;100.00;98200.59;15290711;19;20082;-47
2023/08/04 05:03:40;;;;;;;1.38;0.93;;;;;;;14.38;100.00;98197.50;15293694;19;20035;-46
2023/08/04 05:09:04;;;;;;;0.95;0.90;;;;;;;14.41;100.00;98204.41;15293223;19;20035;-45
2023/08/04 05:14:33;;;;;;;2.10;1.00;;;;;;;14.45;100.00;98219.28;15282310;19;20437;-48
2023/08/04 05:19:57;;;;;;;1.95;1.00;;;;;;;14.45;100.00;98220.09;15292928;19;20352;-49
2023/08/04 05:25:22;;;;;;;2.35;1.10;;;;;;;14.50;100.00;98224.94;15282471;19;20052;-49
2023/08/04 05:30:49;;;;;;;3.38;1.30;;;;;;;14.54;100.00;98237.09;15288373;19;20024;-46
2023/08/04 05:36:20;;;;;;;2.53;1.00;;;;;;;14.61;100.00;98248.00;15282177;19;20025;-47
2023/08/04 05:41:45;;;;;;;2.13;0.95;;;;;;;14.61;100.00;98243.41;15281411;19;20019;-46
2023/08/04 05:47:22;;;;;;;1.73;1.10;;;;;;;14.67;100.00;98241.84;15282396;19;20364;-48
2023/08/04 05:52:47;;;;;;;1.88;0.80;;;;;;;14.72;100.00;98243.97;15284295;19;20022;-46
2023/08/04 05:58:11;;;;;;;2.45;0.90;;;;;;;14.79;100.00;98250.31;15286729;19;20018;-46
2023/08/04 06:03:39;;;;;;;1.60;1.00;;;;;;;14.81;100.00;98240.13;15289935;19;20022;-46
2023/08/04 06:09:03;;;;;;;1.80;1.02;;;;;;;14.84;100.00;98225.31;15288336;19;20019;-46
2023/08/04 06:14:28;;;;;;;1.85;0.90;;;;;;;14.93;100.00;98224.16;15288424;19;20818;-46
2023/08/04 06:19:55;;;;;;;1.95;0.80;;;;;;;15.09;100.00;98233.91;15289180;19;20527;-46
2023/08/04 06:25:20;;;;;;;2.45;0.80;;;;;;;15.25;100.00;98227.34;15286835;19;20033;-46
2023/08/04 06:30:45;;;;;;;1.63;0.80;;;;;;;15.29;100.00;98201.50;15278994;19;20340;-46
2023/08/04 06:36:13;;;;;;;1.90;0.80;;;;;;;15.37;100.00;98192.38;15277779;19;20289;-46
2023/08/04 06:41:38;;;;;;;1.63;0.90;;;;;;;15.42;100.00;98184.47;15279084;19;20547;-47
2023/08/04 06:47:03;;;;;;;1.52;0.80;;;;;;;15.46;100.00;98176.78;15277501;19;20090;-47
2023/08/04 06:52:31;;;;;;;2.92;0.70;;;;;;;15.53;100.00;98169.50;15278168;19;20110;-47
2023/08/04 06:57:56;;;;;;;2.00;0.60;;;;;;;15.59;100.00;98167.88;15297942;19;20018;-47
2023/08/04 07:03:20;;;;;;;1.33;0.60;;;;;;;15.57;100.00;98154.50;15290313;19;20019;-47
2023/08/04 07:08:48;;;;;;;1.58;0.70;;;;;;;15.49;100.00;98141.06;15300290;19;20022;-47
2023/08/04 07:14:12;;;;;;;1.40;0.82;;;;;;;15.45;100.00;98167.78;15288882;19;20531;-47
2023/08/04 07:19:37;;;;;;;2.58;1.00;;;;;;;15.35;100.00;98195.28;15300776;19;20408;-50
2023/08/04 07:25:06;;;;;;;2.70;0.95;;;;;;;15.30;100.00;98214.03;15300614;19;20480;-47
2023/08/04 07:30:32;;;;;;;1.92;0.90;;;;;;;15.25;100.00;98221.91;15301341;19;20014;-47
2023/08/04 07:36:01;;;;;;;2.22;0.80;;;;;;;15.22;100.00;98249.47;15285129;19;20089;-48
2023/08/04 07:41:29;;;;;;;1.85;0.80;;;;;;;15.22;100.00;98265.75;15290698;19;20018;-47
2023/08/04 07:46:53;;;;;;;2.15;0.70;;;;;;;15.19;100.00;98260.72;15287835;19;20029;-50
2023/08/04 07:52:18;;;;;;;2.78;1.00;;;;;;;15.21;100.00;98281.19;15290728;19;20025;-48
2023/08/04 07:57:45;;;;;;;1.02;0.70;;;;;;;15.27;100.00;98298.56;15295403;19;20501;-47
2023/08/04 08:03:10;;;;;;;1.25;0.70;;;;;;;15.27;100.00;98309.41;15297679;19;20100;-49
2023/08/04 08:08:34;;;;;;;1.25;0.57;;;;;;;15.31;100.00;98313.44;15290854;19;20021;-48
2023/08/04 08:14:02;;;;;;;2.45;0.65;;;;;;;15.36;100.00;98326.41;15288620;19;20362;-48
2023/08/04 08:19:26;;;;;;;0.57;0.40;;;;;;;15.40;100.00;98323.13;15295481;19;20476;-50
2023/08/04 08:24:55;;;;;;;1.35;0.43;;;;;;;15.52;100.00;98333.44;15296277;19;20360;-48
2023/08/04 08:30:22;;;;;;;0.70;0.60;;;;;;;15.63;100.00;98335.63;15297824;19;20021;-48
2023/08/04 08:35:47;;;;;;;0.55;0.30;;;;;;;15.72;100.00;98314.59;15285203;19;20361;-48
2023/08/04 08:41:13;;;;;;;1.08;0.47;;;;;;;15.86;100.00;98313.72;15286575;19;20025;-47
2023/08/04 08:46:47;;;;;;;0.60;0.40;;;;;;;16.04;100.00;98316.94;15285248;19;20078;-49
2023/08/04 08:52:12;;;;;;;3.50;0.68;;;;;;;16.21;100.00;98301.16;15286855;19;20011;-51
2023/08/04 08:57:37;;;;;;;1.58;0.70;;;;;;;16.37;100.00;98278.22;15287157;19;20018;-50
2023/08/04 09:03:06;;;;;;;1.90;0.50;;;;;;;16.47;100.00;98254.22;15293460;19;20023;-50
2023/08/04 09:08:31;;;;;;;1.70;0.60;;;;;;;16.63;100.00;98201.34;15288206;19;20089;-51
2023/08/04 09:13:56;;;;;;;3.40;0.60;;;;;;;16.83;100.00;98195.09;15284143;19;20014;-51
2023/08/04 09:19:23;;;;;;;1.90;0.63;;;;;;;16.90;100.00;98172.28;15289753;19;20218;-52
2023/08/04 09:24:55;;;;;;;1.95;0.82;;;;;;;17.02;100.00;98136.31;15291634;19;20014;-49
2023/08/04 09:30:21;;;;;;;1.38;0.60;;;;;;;17.30;100.00;98092.50;15293249;19;20025;-49
2023/08/04 09:35:49;;;;;;;2.08;0.90;;;;;;;17.59;100.00;98097.66;15281570;19;20101;-49
2023/08/04 09:41:16;;;;;;;2.78;0.70;;;;;;;17.83;100.00;98088.75;15281627;19;20077;-51
2023/08/04 09:46:48;;;;;;;1.45;0.60;;;;;;;18.02;100.00;98088.94;15281102;19;20014;-49
2023/08/04 09:52:22;;;;;;;1.58;0.70;;;;;;;18.21;100.00;98059.88;15282558;19;20366;-48
2023/08/04 09:57:47;;;;;;;1.73;0.60;;;;;;;18.40;100.00;98049.06;15282436;19;20028;-49
2023/08/04 10:03:12;;;;;;;1.70;0.60;;;;;;;18.56;100.00;98039.47;15290807;19;20090;-52
2023/08/04 10:08:42;;;;;;;1.83;0.52;;;;;;;18.67;100.00;98008.75;15290965;19;20022;-50
2023/08/04 10:14:08;;;;;;;1.73;0.60;;;;;;;18.77;100.00;98005.50;15283247;19;20015;-50
2023/08/04 10:19:32;;;;;;;1.63;0.70;;;;;;;18.80;100.00;98002.34;15284120;19;20039;-47
2023/08/04 10:25:00;;;;;;;1.50;0.60;;;;;;;18.82;100.00;98008.38;15287922;19;20109;-48
2023/08/04 10:30:26;;;;;;;2.00;0.60;;;;;;;18.82;100.00;98010.28;15296836;19;20826;-49
2023/08/04 10:36:08;;;;;;;1.17;0.55;;;;;;;18.68;100.00;98010.41;15292061;19;20364;-51
2023/08/04 10:41:38;;;;;;;1.58;0.43;;;;;;;18.70;100.00;98018.41;15294593;19;20023;-48
2023/08/04 10:47:05;;;;;;;1.42;0.60;;;;;;;18.78;100.00;98018.09;15291982;19;20390;-47
2023/08/04 10:52:30;;;;;;;2.33;0.80;;;;;;;18.84;100.00;98011.72;15298729;19;20018;-47
2023/08/04 10:57:57;;;;;;;2.00;0.73;;;;;;;18.92;100.00;98022.38;15294717;19;20021;-52
2023/08/04 11:03:29;;;;;;;1.40;0.70;;;;;;;18.94;100.00;98012.06;15302207;19;20018;-51
2023/08/04 11:09:01;;;;;;;2.10;0.70;;;;;;;19.18;100.00;97995.03;15299975;19;20020;-50
2023/08/04 11:14:28;;;;;;;2.17;0.70;;;;;;;19.22;100.00;97996.25;15290748;19;20018;-52
2023/08/04 11:19:54;;;;;;;1.55;0.70;;;;;;;19.32;100.00;97993.81;15301065;19;20020;-50
2023/08/04 11:25:27;;;;;;;1.33;0.70;;;;;;;19.29;100.00;98016.13;15291427;19;20359;-86
2023/08/04 11:30:55;;;;;;;3.40;0.80;;;;;;;19.51;100.00;98012.91;15301391;19;20036;-86
2023/08/04 11:36:19;;;;;;;2.58;0.80;;;;;;;19.56;100.00;98004.88;15299116;19;20094;-85
2023/08/04 11:41:45;;;;;;;1.52;0.60;;;;;;;19.71;100.00;97991.63;15301560;19;20375;-86
2023/08/04 11:47:17;;;;;;;1.20;0.60;;;;;;;19.84;100.00;97989.78;15333968;19;20440;-85
2023/08/04 11:52:42;;;;;;;2.15;0.80;;;;;;;20.20;100.00;97993.47;15303013;19;20015;-85
2023/08/04 11:58:06;;;;;;;1.20;0.60;;;;;;;20.28;100.00;97995.03;15303032;19;20029;-86
2023/08/04 12:03:34;;;;;;;1.75;0.60;;;;;;;20.41;100.00;98002.19;15302230;19;20025;-86
2023/08/04 12:09:02;;;;;;;2.17;0.80;;;;;;;20.37;100.00;98010.03;15309753;19;20018;-86
2023/08/04 12:14:27;;;;;;;2.28;0.70;;;;;;;20.54;100.00;98021.13;15303901;19;20022;-87
2023/08/04 12:20:16;;;;;;;1.92;0.77;;;;;;;20.51;100.00;98026.25;15307451;19;20389;-85
2023/08/04 12:25:47;;;;;;;2.00;0.60;;;;;;;20.51;100.00;98027.09;15302621;19;20458;-86
2023/08/04 12:31:12;;;;;;;1.88;0.70;;;;;;;20.46;100.00;98035.16;15299629;19;20018;-86
2023/08/04 12:36:40;;;;;;;3.35;0.70;;;;;;;20.37;100.00;98044.78;15304400;19;20039;-85
2023/08/04 12:42:04;;;;;;;1.65;0.60;;;;;;;20.24;100.00;98054.00;15301454;19;20013;-86
2023/08/04 12:47:31;;;;;;;1.02;0.60;;;;;;;20.22;100.00;98051.53;15301725;19;20471;-85
2023/08/04 12:52:59;;;;;;;1.33;0.60;;;;;;;20.16;100.00;98031.41;15295457;19;20022;-86
2023/08/04 12:58:25;;;;;;;1.98;0.50;;;;;;;20.30;100.00;98037.50;15294985;19;20019;-87
2023/08/04 13:03:50;;;;;;;1.02;0.52;;;;;;;20.39;100.00;98023.50;15295194;19;20019;-85
2023/08/04 13:09:19;;;;;;;1.58;0.50;;;;;;;20.55;100.00;98020.06;15302631;19;20014;-85
2023/08/04 13:14:44;;;;;;;1.20;0.60;;;;;;;20.89;100.00;98017.59;15313613;19;20015;-85
2023/08/04 13:20:09;;;;;;;2.20;0.63;;;;;;;20.92;100.00;98027.28;15312281;19;20491;-87
2023/08/04 13:25:47;;;;;;;3.10;0.70;;;;;;;20.66;100.00;98015.69;15304940;19;20601;-85
2023/08/04 13:31:12;;;;;;;1.80;0.70;;;;;;;20.64;100.00;98035.06;15317971;19;20358;-87
2023/08/04 13:36:37;;;;;;;1.17;0.63;;;;;;;20.59;100.00;98023.16;15330615;19;20022;-86
2023/08/04 13:42:04;;;;;;;4.53;0.75;;;;;;;20.41;100.00;98032.28;15321060;19;20018;-88
2023/08/04 13:47:29;;;;;;;1.35;0.60;;;;;;;20.27;100.00;98048.94;15303056;19;20574;-85
2023/08/04 13:52:54;;;;;;;1.38;0.60;;;;;;;20.27;100.00;98048.06;15305913;19;20018;-87
2023/08/04 13:58:24;;;;;;;0.82;0.40;;;;;;;20.06;100.00;98046.69;15310570;19;20011;-86
2023/08/04 14:03:49;;;;;;;3.17;0.75;;;;;;;20.02;100.00;98063.59;15306888;19;20018;-86
2023/08/04 14:09:14;;;;;;;0.85;0.50;;;;;;;19.89;100.00;98060.19;15322309;19;20090;-87
2023/08/04 14:14:42;;;;;;;2.83;0.80;;;;;;;19.75;100.00;98067.69;15307253;19;20453;-86
2023/08/04 14:20:10;;;;;;;2.08;0.80;;;;;;;19.74;100.00;98071.50;15316195;19;20003;-86
2023/08/04 14:25:41;;;;;;;1.50;0.63;;;;;;;19.64;100.00;98070.13;15303149;19;20014;-86
2023/08/04 14:31:11;;;;;;;1.80;0.80;;;;;;;19.58;100.00;98078.41;15310674;19;20019;-86
2023/08/04 14:36:36;;;;;;;1.45;0.55;;;;;;;19.51;100.00;98079.34;15304415;19;20014;-86
2023/08/04 14:42:00;;;;;;;1.80;0.70;;;;;;;19.64;100.00;98061.94;15317984;19;19999;-90
2023/08/04 14:47:30;;;;;;;1.85;0.60;;;;;;;19.88;100.00;98056.63;15328359;19;20018;-86
2023/08/04 14:52:54;;;;;;;1.80;0.70;;;;;;;20.17;100.00;98048.63;15313013;19;20022;-85
2023/08/04 14:58:20;;;;;;;2.80;0.70;;;;;;;20.36;100.00;98062.25;15305626;19;20097;-86
2023/08/04 15:03:49;;;;;;;1.00;0.60;;;;;;;20.42;100.00;98064.03;15308678;19;20018;-86
2023/08/04 15:09:14;;;;;;;1.92;0.68;;;;;;;20.61;100.00;98056.59;15315351;19;20011;-85
2023/08/04 15:14:40;;;;;;;1.40;0.60;;;;;;;20.53;100.00;98059.69;15307877;19;20475;-87
2023/08/04 15:20:07;;;;;;;2.35;0.80;;;;;;;20.44;100.00;98054.56;15314411;19;20078;-85
2023/08/04 15:25:39;;;;;;;2.10;0.57;;;;;;;20.40;100.00;98055.28;15329204;19;20014;-85
2023/08/04 15:31:07;;;;;;;1.30;0.60;;;;;;;20.40;100.00;98050.63;15304730;19;20018;-86
2023/08/04 15:36:35;;;;;;;1.58;0.65;;;;;;;20.41;100.00;98056.91;15302635;19;20017;-86
2023/08/04 15:41:59;;;;;;;1.23;0.60;;;;;;;20.57;100.00;98048.03;15314982;19;20101;-87
2023/08/04 15:47:31;;;;;;;1.55;0.70;;;;;;;20.70;100.00;98046.16;15283513;19;20017;-52
2023/08/04 15:52:51;;;;;;;2.17;0.50;;;;;;;20.73;100.00;98056.63;15290522;19;20031;-52
2023/08/04 15:58:17;;;;;;;2.00;0.60;;;;;;;20.71;100.00;98058.75;15287568;19;20453;-54
2023/08/04 16:03:41;;;;;;;1.10;0.60;;;;;;;20.57;100.00;98045.28;15288987;19;20038;-54
2023/08/04 16:09:09;;;;;;;2.28;0.70;;;;;;;20.52;100.00;98052.53;15296167;19;20010;-51
2023/08/04 16:14:34;;;;;;;1.13;0.50;;;;;;;20.59;100.00;98039.56;15291925;19;20480;-53
2023/08/04 16:19:58;;;;;;;0.82;0.50;;;;;;;20.66;100.00;98044.94;15294867;19;20869;-53
2023/08/04 16:25:26;;;;;;;1.23;0.60;;;;;;;20.74;100.00;98034.50;15294841;19;20010;-52
2023/08/04 16:30:51;;;;;;;1.95;0.60;;;;;;;20.86;100.00;98034.53;15298883;19;20296;-55
2023/08/04 16:36:15;;;;;;;0.75;0.50;;;;;;;20.98;100.00;98041.91;15286048;19;20412;-51
2023/08/04 16:41:42;;;;;;;1.48;0.60;;;;;;;20.91;100.00;98042.84;15289105;19;20018;-53
2023/08/04 16:47:07;;;;;;;2.15;0.70;;;;;;;20.98;100.00;98040.00;15288732;19;20041;-54
2023/08/04 16:52:32;;;;;;;1.45;0.60;;;;;;;21.00;100.00;98047.97;15289068;19;20021;-54
2023/08/04 16:57:59;;;;;;;1.92;0.73;;;;;;;21.03;100.00;98050.22;15286947;19;20022;-53
2023/08/04 17:03:23;;;;;;;1.60;0.75;;;;;;;20.99;100.00;98049.06;15294885;19;20018;-55
2023/08/04 17:08:48;;;;;;;0.93;0.60;;;;;;;21.01;100.00;98057.84;15291581;19;20034;-49
2023/08/04 17:14:16;;;;;;;2.47;0.60;;;;;;;21.06;100.00;98064.28;15285818;19;20035;-50
2023/08/04 17:19:40;;;;;;;1.52;0.68;;;;;;;20.94;100.00;98061.56;15293833;19;20006;-53
2023/08/04 17:25:05;;;;;;;1.80;0.80;;;;;;;20.86;100.00;98072.00;15291695;19;20024;-55
2023/08/04 17:30:32;;;;;;;1.33;0.60;;;;;;;20.72;100.00;98085.88;15294986;19;20022;-55
2023/08/04 17:35:57;;;;;;;1.00;0.50;;;;;;;20.57;100.00;98096.47;15281149;19;20361;-51
2023/08/04 17:41:21;;;;;;;1.75;0.50;;;;;;;20.42;100.00;98105.09;15280236;19;20015;-52
2023/08/04 17:46:56;;;;;;;1.15;0.57;;;;;;;20.25;100.00;98107.66;15282574;19;20038;-54
2023/08/04 17:52:20;;;;;;;0.93;0.52;;;;;;;20.08;100.00;98113.78;15283846;19;20018;-53
2023/08/04 17:57:46;;;;;;;1.60;0.70;;;;;;;19.96;100.00;98124.66;15284955;19;20042;-50
2023/08/04 18:03:14;;;;;;;2.30;0.50;;;;;;;19.87;100.00;98136.97;15291216;19;20028;-54
2023/08/04 18:08:38;;;;;;;1.75;0.60;;;;;;;19.75;100.00;98134.13;15291606;19;20563;-51
2023/08/04 18:14:03;;;;;;;1.17;0.70;;;;;;;19.64;100.00;98138.44;15288455;19;20019;-51
2023/08/04 18:19:31;;;;;;;1.30;0.50;;;;;;;19.54;100.00;98144.44;15280975;19;20047;-51
2023/08/04 18:24:55;;;;;;;1.58;0.57;;;;;;;19.39;100.00;98152.19;15285596;19;20014;-50
2023/08/04 18:30:21;;;;;;;1.38;0.45;;;;;;;19.27;100.00;98148.50;15291022;19;20104;-53
2023/08/04 18:35:49;;;;;;;1.70;0.60;;;;;;;19.16;100.00;98158.25;15278410;19;20371;-56
2023/08/04 18:41:14;;;;;;;0.93;0.55;;;;;;;19.05;100.00;98163.41;15282413;19;20084;-50
2023/08/04 18:46:45;;;;;;;0.90;0.40;;;;;;;18.94;100.00;98162.19;15221284;19;20070;-51
2023/08/04 18:52:13;;;;;;;1.75;0.60;;;;;;;18.86;100.00;98172.56;15286903;19;20038;-50
2023/08/04 18:57:38;;;;;;;1.48;0.50;;;;;;;18.77;100.00;98166.53;15295619;19;20065;-49
2023/08/04 19:03:03;;;;;;;0.52;0.40;;;;;;;18.66;100.00;98173.50;15300630;19;20218;-50
2023/08/04 19:08:30;;;;;;;2.83;0.50;;;;;;;18.59;100.00;98180.91;15298659;19;20031;-50
2023/08/04 19:13:55;;;;;;;0.85;0.50;;;;;;;18.45;100.00;98177.44;15292238;19;20027;-51
2023/08/04 19:19:22;;;;;;;1.58;0.30;;;;;;;18.33;100.00;98185.44;15292570;19;20366;-50
2023/08/04 19:24:50;;;;;;;1.15;0.50;;;;;;;18.21;100.00;98181.72;15293705;19;20017;-53
2023/08/04 19:30:20;;;;;;;1.17;0.50;;;;;;;18.10;100.00;98200.44;15300321;19;20015;-50
2023/08/04 19:35:45;;;;;;;1.13;0.60;;;;;;;18.04;100.00;98195.88;15295600;19;20015;-49
2023/08/04 19:41:12;;;;;;;1.23;0.70;;;;;;;17.98;100.00;98213.91;15288559;19;20018;-54
2023/08/04 19:46:43;;;;;;;1.60;0.60;;;;;;;17.87;100.00;98223.53;15287863;19;20086;-53
2023/08/04 19:52:08;;;;;;;1.65;0.70;;;;;;;17.74;100.00;98226.28;15293534;19;20022;-55
2023/08/04 19:57:35;;;;;;;1.15;0.70;;;;;;;17.66;100.00;98240.97;15288571;19;20040;-53
2023/08/04 20:03:00;;;;;;;0.68;0.55;;;;;;;17.61;100.00;98248.09;15294800;19;20090;-54
2023/08/04 20:08:24;;;;;;;0.73;0.55;;;;;;;17.55;100.00;98253.38;15296781;19;20035;-53
2023/08/04 20:13:51;;;;;;;1.50;0.65;;;;;;;17.53;100.00;98257.31;15288051;19;20494;-55
2023/08/04 20:19:16;;;;;;;0.93;0.47;;;;;;;17.48;100.00;98268.84;15292035;19;20433;-55
2023/08/04 20:24:42;;;;;;;1.00;0.70;;;;;;;17.44;100.00;98267.63;15292406;19;20089;-56
2023/08/04 20:30:09;;;;;;;1.00;0.60;;;;;;;17.43;100.00;98293.19;15289799;19;20483;-56
2023/08/04 20:35:35;;;;;;;1.05;0.60;;;;;;;17.41;100.00;98289.81;15290458;19;20565;-53
2023/08/04 20:41:09;;;;;;;1.73;0.70;;;;;;;17.37;100.00;98286.69;15293860;19;20078;-49
2023/08/04 20:46:36;;;;;;;0.63;0.50;;;;;;;17.34;100.00;98289.81;15263446;19;20017;-52
2023/08/04 20:52:01;;;;;;;1.20;0.65;;;;;;;17.32;100.00;98281.00;15286679;19;20014;-52
2023/08/04 20:57:26;;;;;;;1.67;0.63;;;;;;;17.31;100.00;98283.94;15291370;19;20526;-56
2023/08/04 21:02:53;;;;;;;1.13;0.68;;;;;;;17.28;100.00;98281.63;15287129;19;20025;-55
2023/08/04 21:08:19;;;;;;;1.23;0.70;;;;;;;17.27;100.00;98278.09;14779957;19;10001714;-52
2023/08/04 21:13:43;;;;;;;2.67;0.80;;;;;;;17.26;100.00;98276.41;15285289;19;20014;-52
2023/08/04 21:19:11;;;;;;;0.60;0.60;;;;;;;17.24;100.00;98276.59;15290625;19;20038;-50
2023/08/04 21:24:35;;;;;;;1.30;0.90;;;;;;;17.19;100.00;98276.41;15288879;19;20031;-51
2023/08/04 21:30:01;;;;;;;2.25;0.80;;;;;;;17.13;100.00;98285.38;15291233;19;20719;-51
2023/08/04 21:35:28;;;;;;;2.17;0.98;;;;;;;17.07;100.00;98294.38;15283242;19;20030;-52
2023/08/04 21:40:53;;;;;;;3.00;1.20;;;;;;;17.04;100.00;98305.69;15282359;19;20360;-50
2023/08/04 21:46:24;;;;;;;1.95;1.10;;;;;;;17.03;100.00;98309.44;15281240;19;20490;-53
2023/08/04 21:51:59;;;;;;;1.50;1.08;;;;;;;16.99;100.00;98292.69;15282848;19;20018;-51
2023/08/04 21:57:25;;;;;;;1.27;0.90;;;;;;;16.98;100.00;98318.22;15292102;19;20010;-51
2023/08/04 22:02:49;;;;;;;1.20;0.90;;;;;;;16.98;100.00;98322.84;15288540;19;20020;-52
2023/08/04 22:08:16;;;;;;;2.00;0.90;;;;;;;16.97;100.00;98321.16;15286342;19;20024;-50
2023/08/04 22:13:41;;;;;;;1.88;0.90;;;;;;;16.92;100.00;98328.03;15282773;19;20082;-50
2023/08/04 22:19:06;;;;;;;1.35;0.90;;;;;;;16.87;100.00;98344.13;15285333;19;20490;-51
2023/08/04 22:24:33;;;;;;;2.60;1.20;;;;;;;16.84;100.00;98341.81;15286994;19;20015;-50
2023/08/04 22:29:58;;;;;;;2.33;1.13;;;;;;;16.82;100.00;98334.91;15304541;19;20043;-50
2023/08/04 22:35:22;;;;;;;3.95;1.23;;;;;;;16.75;100.00;98338.44;15293667;19;20432;-49
2023/08/04 22:40:50;;;;;;;1.65;0.90;;;;;;;16.71;100.00;98341.75;15297584;19;20022;-52
2023/08/04 22:46:14;;;;;;;1.95;0.90;;;;;;;16.62;100.00;98341.94;15292100;19;20014;-54
2023/08/04 22:51:39;;;;;;;3.35;1.23;;;;;;;16.56;100.00;98337.31;15296018;19;20022;-51
2023/08/04 22:57:06;;;;;;;1.90;1.02;;;;;;;16.48;100.00;98332.88;15293246;19;20023;-54
2023/08/04 23:02:31;;;;;;;2.35;1.15;;;;;;;16.44;100.00;98325.31;15294047;19;20026;-53
2023/08/04 23:07:55;;;;;;;1.67;1.08;;;;;;;16.41;100.00;98323.84;15299245;19;20086;-54
2023/08/04 23:13:22;;;;;;;2.10;1.10;;;;;;;16.40;100.00;98341.19;15296703;19;20043;-54
2023/08/04 23:18:47;;;;;;;1.70;1.02;;;;;;;16.37;100.00;98344.31;15297453;19;20018;-50
2023/08/04 23:24:12;;;;;;;2.50;1.17;;;;;;;16.32;100.00;98358.50;15294843;19;20014;-56
2023/08/04 23:29:39;;;;;;;1.75;1.10;;;;;;;16.29;100.00;98386.09;15299730;19;20388;-51
2023/08/04 23:35:04;;;;;;;1.85;1.10;;;;;;;16.27;100.00;98393.63;15291509;19;20022;-55
2023/08/04 23:40:28;;;;;;;3.30;1.25;;;;;;;16.25;100.00;98409.28;15295998;19;20497;-52
2023/08/04 23:45:55;;;;;;;1.77;1.30;;;;;;;16.21;100.00;98405.28;15291620;19;20363;-53
2023/08/04 23:51:21;;;;;;;2.33;1.23;;;;;;;16.17;100.00;98404.84;15291838;19;20020;-52
2023/08/04 23:56:46;;;;;;;2.85;1.30;;;;;;;16.11;100.00;98412.94;15293991;19;20523;-55
